Time;durP1;ratioP1;P1;durP2;ratioP2;P2;SDS_P1;SDS_P2;PMS_P1;PMS_P2;Temp;Humidity;BMP_temperature;BMP_pressure;BME280_temperature;BME280_humidity;BME280_pressure;Samples;Min_cycle;Max_cycle;Signal;HPM_P1;HPM_P2
2022/02/22 00:02:07;;;;;;;20.58;11.23;;;;;;;;;;5093382;28;20401;-74
2022/02/22 00:04:36;;;;;;;29.20;19.63;;;;;;;;;;5093337;28;20030;-74
2022/02/22 00:07:05;;;;;;;33.35;19.23;;;;;;;;;;5092856;28;20028;-75
2022/02/22 00:09:31;;;;;;;28.70;18.45;;;;;;;;;;5093372;28;20376;-75
2022/02/22 00:11:58;;;;;;;29.23;16.92;;;;;;;;;;5093518;28;20020;-73
2022/02/22 00:14:24;;;;;;;27.35;15.93;;;;;;;;;;5092752;28;20028;-73
2022/02/22 00:16:55;;;;;;;22.17;11.95;;;;;;;;;;5093196;28;20020;-73
2022/02/22 00:19:22;;;;;;;19.30;11.15;;;;;;;;;;5093100;28;20099;-73
2022/02/22 00:21:48;;;;;;;18.27;10.68;;;;;;;;;;5092860;28;20028;-73
2022/02/22 00:24:15;;;;;;;17.42;9.82;;;;;;;;;;5093248;28;20050;-73
2022/02/22 00:26:41;;;;;;;15.75;9.15;;;;;;;;;;5108719;28;20040;-73
2022/02/22 00:29:08;;;;;;;18.02;9.70;;;;;;;;;;5092684;28;20028;-73
2022/02/22 00:31:35;;;;;;;16.10;9.80;;;;;;;;;;5093266;28;20054;-74
2022/02/22 00:34:02;;;;;;;23.55;11.70;;;;;;;;;;5111887;28;20438;-74
2022/02/22 00:36:28;;;;;;;16.67;10.20;;;;;;;;;;5096533;28;20111;-73
2022/02/22 00:38:54;;;;;;;19.98;9.77;;;;;;;;;;5096749;28;20142;-73
2022/02/22 00:41:20;;;;;;;16.45;8.75;;;;;;;;;;5096711;28;20024;-74
2022/02/22 00:43:47;;;;;;;12.88;8.38;;;;;;;;;;5096387;28;20016;-73
2022/02/22 00:46:13;;;;;;;18.25;9.00;;;;;;;;;;5096385;28;20042;-74
2022/02/22 00:48:39;;;;;;;18.60;10.13;;;;;;;;;;5096273;28;20419;-74
2022/02/22 00:51:05;;;;;;;21.52;11.13;;;;;;;;;;5095743;28;20468;-73
2022/02/22 00:53:31;;;;;;;20.27;11.43;;;;;;;;;;5096485;28;20039;-74
2022/02/22 00:55:58;;;;;;;23.48;11.63;;;;;;;;;;5094861;28;20027;-74
2022/02/22 00:58:24;;;;;;;;;;;;;;;;;;5095420;28;20028;-74
2022/02/22 01:00:50;;;;;;;;;;;;;;;;;;5096706;28;20302;-73
2022/02/22 01:03:16;;;;;;;;;;;;;;;;;;5096340;28;19904;-73
2022/02/22 01:05:42;;;;;;;;;;;;;;;;;;5095347;28;20007;-74
2022/02/22 01:08:08;;;;;;;;;;;;;;;;;;5095378;28;19950;-74
2022/02/22 01:10:34;;;;;;;;;;;;;;;;;;5094996;28;19904;-74
2022/02/22 01:13:00;;;;;;;;;;;;;;;;;;5096544;28;19904;-73
2022/02/22 01:15:26;;;;;;;;;;;;;;;;;;5096506;28;19904;-73
2022/02/22 01:17:52;;;;;;;;;;;;;;;;;;5096101;28;19904;-74
2022/02/22 01:20:18;;;;;;;;;;;;;;;;;;5096682;28;19907;-73
2022/02/22 01:22:44;;;;;;;;;;;;;;;;;;5095160;28;19911;-73
2022/02/22 01:25:10;;;;;;;;;;;;;;;;;;5095967;28;20445;-73
2022/02/22 01:27:36;;;;;;;;;;;;;;;;;;5096352;28;20375;-73
2022/02/22 01:30:02;;;;;;;;;;;;;;;;;;5096291;28;19904;-73
2022/02/22 01:32:28;;;;;;;;;;;;;;;;;;5094542;28;19908;-74
2022/02/22 01:34:54;;;;;;;;;;;;;;;;;;5094909;28;19951;-74
2022/02/22 01:37:20;;;;;;;;;;;;;;;;;;5094806;28;19910;-74
2022/02/22 01:39:46;;;;;;;;;;;;;;;;;;5094371;28;20402;-73
2022/02/22 01:42:12;;;;;;;;;;;;;;;;;;5096319;28;19990;-74
2022/02/22 01:44:38;;;;;;;;;;;;;;;;;;5096272;28;19954;-74
2022/02/22 01:47:04;;;;;;;;;;;;;;;;;;5095229;28;19916;-74
2022/02/22 01:49:30;;;;;;;;;;;;;;;;;;5095883;28;20363;-73
2022/02/22 01:51:57;;;;;;;;;;;;;;;;;;5095447;28;19904;-73
2022/02/22 01:54:23;;;;;;;;;;;;;;;;;;5095849;28;19957;-74
2022/02/22 01:56:49;;;;;;;;;;;;;;;;;;5094433;28;20355;-74
2022/02/22 01:59:15;;;;;;;;;;;;;;;;;;5095864;28;19911;-75
2022/02/22 02:01:40;;;;;;;;;;;;;;;;;;5094359;28;19949;-73
2022/02/22 02:04:07;;;;;;;;;;;;;;;;;;5095625;28;20368;-73
2022/02/22 02:06:33;;;;;;;;;;;;;;;;;;5093853;28;19916;-73
2022/02/22 02:08:59;;;;;;;;;;;;;;;;;;5095498;28;19908;-73
2022/02/22 02:11:25;;;;;;;;;;;;;;;;;;5094158;28;19904;-74
2022/02/22 02:13:51;;;;;;;;;;;;;;;;;;5095043;28;19991;-73
2022/02/22 02:16:17;;;;;;;;;;;;;;;;;;5095398;28;20352;-74
2022/02/22 02:18:43;;;;;;;;;;;;;;;;;;5093947;28;19926;-74
2022/02/22 02:21:09;;;;;;;;;;;;;;;;;;5094918;28;20367;-74
2022/02/22 02:23:35;;;;;;;;;;;;;;;;;;5095759;28;19911;-73
2022/02/22 02:26:01;;;;;;;;;;;;;;;;;;5095070;28;19908;-73
2022/02/22 02:28:27;;;;;;;;;;;;;;;;;;5093390;28;19958;-73
2022/02/22 02:30:52;;;;;;;;;;;;;;;;;;5095030;28;19911;-74
2022/02/22 02:33:18;;;;;;;;;;;;;;;;;;5095288;28;20419;-74
2022/02/22 02:35:44;;;;;;;;;;;;;;;;;;5094577;28;19910;-74
2022/02/22 02:38:10;;;;;;;;;;;;;;;;;;5094972;28;19991;-74
2022/02/22 02:40:36;;;;;;;;;;;;;;;;;;5093618;28;20004;-73
2022/02/22 02:43:02;;;;;;;;;;;;;;;;;;5094549;28;19904;-73
2022/02/22 02:45:28;;;;;;;;;;;;;;;;;;5094637;28;19908;-73
2022/02/22 02:47:54;;;;;;;;;;;;;;;;;;5093534;28;19991;-73
2022/02/22 02:50:21;;;;;;;;;;;;;;;;;;5094398;28;20395;-73
2022/02/22 02:52:47;;;;;;;;;;;;;;;;;;5094647;28;19904;-74
2022/02/22 02:55:13;;;;;;;;;;;;;;;;;;5093756;28;20017;-74
2022/02/22 02:57:38;;;;;;;;;;;;;;;;;;5094564;28;20279;-74
2022/02/22 03:00:05;;;;;;;;;;;;;;;;;;5093274;28;19987;-74
2022/02/22 03:02:31;;;;;;;;;;;;;;;;;;5094055;28;20073;-73
2022/02/22 03:04:59;;;;;;;;;;;;;;;;;;5094734;28;20372;-73
2022/02/22 03:07:26;;;;;;;;;;;;;;;;;;5092992;28;19923;-73
2022/02/22 03:09:51;;;;;;;;;;;;;;;;;;5094029;28;20363;-73
2022/02/22 03:12:17;;;;;;;;;;;;;;;;;;5094315;28;19911;-74
2022/02/22 03:14:45;;;;;;;;;;;;;;;;;;5094379;28;19904;-73
2022/02/22 03:17:11;;;;;;;;;;;;;;;;;;5092753;28;19908;-73
2022/02/22 03:19:37;;;;;;;;;;;;;;;;;;5094194;28;19949;-73
2022/02/22 03:22:03;;;;;;;;;;;;;;;;;;5092848;28;20379;-74
2022/02/22 03:24:29;;;;;;;;;;;;;;;;;;5093977;28;19951;-74
2022/02/22 03:26:55;;;;;;;;;;;;;;;;;;5092719;28;20375;-73
2022/02/22 03:29:21;;;;;;;;;;;;;;;;;;5094111;28;19904;-73
2022/02/22 03:31:47;;;;;;;;;;;;;;;;;;5093648;28;20484;-74
2022/02/22 03:34:13;;;;;;;;;;;;;;;;;;5092709;28;19904;-73
2022/02/22 03:36:39;;;;;;;;;;;;;;;;;;5094261;28;19945;-73
2022/02/22 03:39:05;;;;;;;;;;;;;;;;;;5093611;28;19904;-73
2022/02/22 03:41:31;;;;;;;;;;;;;;;;;;5094483;28;19904;-73
2022/02/22 03:43:57;;;;;;;;;;;;;;;;;;5092671;28;20024;-73
2022/02/22 03:46:23;;;;;;;;;;;;;;;;;;5093400;28;20291;-73
2022/02/22 03:48:49;;;;;;;;;;;;;;;;;;5092623;28;19908;-73
2022/02/22 03:51:15;;;;;;;;;;;;;;;;;;5094054;28;19904;-73
2022/02/22 03:53:41;;;;;;;;;;;;;;;;;;5092150;28;19904;-73
2022/02/22 03:56:07;;;;;;;;;;;;;;;;;;5094058;28;19911;-74
2022/02/22 03:58:33;;;;;;;;;;;;;;;;;;5093431;28;19904;-73
2022/02/22 04:00:59;;;;;;;;;;;;;;;;;;5093744;28;20364;-74
2022/02/22 04:03:25;;;;;;;;;;;;;;;;;;5092416;28;19954;-73
2022/02/22 04:05:51;;;;;;;;;;;;;;;;;;5093524;28;19954;-73
2022/02/22 04:08:17;;;;;;;;;;;;;;;;;;5095743;28;20378;-73
2022/02/22 04:10:43;;;;;;;;;;;;;;;;;;5097761;28;19904;-73
2022/02/22 04:13:09;;;;;;;;;;;;;;;;;;5097340;28;20419;-73
2022/02/22 04:15:35;;;;;;;;;;;;;;;;;;5097946;28;19946;-73
2022/02/22 04:18:01;;;;;;;;;;;;;;;;;;5097633;28;19904;-73
2022/02/22 04:20:27;;;;;;;;;;;;;;;;;;5095937;28;19911;-73
2022/02/22 04:22:53;;;;;;;;;;;;;;;;;;5096287;28;19954;-73
2022/02/22 04:25:20;;;;;;;;;;;;;;;;;;5097723;28;19935;-73
2022/02/22 04:27:46;;;;;;;;;;;;;;;;;;5095807;28;20018;-73
2022/02/22 04:30:12;;;;;;;;;;;;;;;;;;5097872;28;19931;-73
2022/02/22 04:32:38;;;;;;;;;;;;;;;;;;5097369;28;19939;-73
2022/02/22 04:35:04;;;;;;;;;;;;;;;;;;5095726;28;19904;-73
2022/02/22 04:37:30;;;;;;;;;;;;;;;;;;5096053;28;20302;-74
2022/02/22 04:39:58;;;;;;;;;;;;;;;;;;5095952;28;20375;-73
2022/02/22 04:42:24;;;;;;;;;;;;;;;;;;5096968;28;19939;-74
2022/02/22 04:44:50;;;;;;;;;;;;;;;;;;5095845;28;19904;-73
2022/02/22 04:47:16;;;;;;;;;;;;;;;;;;5096914;28;20011;-73
2022/02/22 04:49:42;;;;;;;;;;;;;;;;;;5095394;28;19910;-73
2022/02/22 04:52:10;;;;;;;;;;;;;;;;;;5096973;28;19904;-73
2022/02/22 04:54:37;;;;;;;;;;;;;;;;;;5096920;28;19911;-74
2022/02/22 04:57:02;;;;;;;;;;;;;;;;;;5096615;28;20457;-74
2022/02/22 04:59:28;;;;;;;;;;;;;;;;;;5096889;28;19982;-74
2022/02/22 05:01:54;;;;;;;;;;;;;;;;;;5095199;28;19987;-73
2022/02/22 05:04:20;;;;;;;;;;;;;;;;;;5095429;28;19904;-73
2022/02/22 05:06:46;;;;;;;;;;;;;;;;;;5095294;28;19919;-73
2022/02/22 05:09:12;;;;;;;;;;;;;;;;;;5096737;28;19904;-73
2022/02/22 05:11:38;;;;;;;;;;;;;;;;;;5097122;28;19908;-74
2022/02/22 05:14:05;;;;;;;;;;;;;;;;;;5096582;28;19943;-74
2022/02/22 05:16:32;;;;;;;;;;;;;;;;;;5094902;28;20385;-74
2022/02/22 05:18:58;;;;;;;;;;;;;;;;;;5096083;28;20257;-78
2022/02/22 05:21:24;;;;;;;;;;;;;;;;;;5095599;28;19911;-85
2022/02/22 05:23:50;;;;;;;;;;;;;;;;;;5095774;28;19904;-85
2022/02/22 05:26:16;;;;;;;;;;;;;;;;;;5095300;28;19962;-82
2022/02/22 05:28:44;;;;;;;;;;;;;;;;;;5095711;28;19904;-85
2022/02/22 05:31:10;;;;;;;;;;;;;;;;;;5096748;28;19999;-86
2022/02/22 05:33:36;;;;;;;;;;;;;;;;;;5095992;28;20056;-87
2022/02/22 05:36:02;;;;;;;;;;;;;;;;;;5095789;28;19904;-86
2022/02/22 05:38:28;;;;;;;;;;;;;;;;;;5096003;28;19908;-87
2022/02/22 05:40:54;;;;;;;;;;;;;;;;;;5097353;28;19904;-85
2022/02/22 05:43:20;;;;;;;;;;;;;;;;;;5095789;28;19905;-86
2022/02/22 05:45:46;;;;;;;;;;;;;;;;;;5095156;28;20334;-86
2022/02/22 05:48:12;;;;;;;;;;;;;;;;;;5095680;28;19904;-86
2022/02/22 05:50:38;;;;;;;;;;;;;;;;;;5097165;28;19914;-85
2022/02/22 05:53:04;;;;;;;;;;;;;;;;;;5096458;28;20039;-85
2022/02/22 05:55:30;;;;;;;;;;;;;;;;;;5108390;28;19943;-86
2022/02/22 05:57:56;;;;;;;;;;;;;;;;;;5109628;28;20271;-85
2022/02/22 06:00:22;;;;;;;;;;;;;;;;;;5104511;28;19904;-87
2022/02/22 06:02:48;;;;;;;;;;;;;;;;;;5092668;28;19935;-84
2022/02/22 06:05:14;;;;;;;;;;;;;;;;;;5074501;28;19991;-83
2022/02/22 06:07:40;;;;;;;;;;;;;;;;;;5077946;28;19919;-84
2022/02/22 06:10:06;;;;;;;;;;;;;;;;;;5074980;28;20341;-84
2022/02/22 06:12:32;;;;;;;;;;;;;;;;;;5074317;28;20288;-85
2022/02/22 06:14:58;;;;;;;;;;;;;;;;;;5074717;28;19908;-85
2022/02/22 06:17:24;;;;;;;;;;;;;;;;;;5096033;28;19967;-86
2022/02/22 06:19:51;;;;;;;;;;;;;;;;;;5103341;28;20288;-82
2022/02/22 06:22:17;;;;;;;;;;;;;;;;;;5082954;28;19908;-78
2022/02/22 06:24:43;;;;;;;;;;;;;;;;;;5083848;28;19910;-83
2022/02/22 06:27:09;;;;;;;;;;;;;;;;;;5093515;28;19958;-84
2022/02/22 06:29:35;;;;;;;;;;;;;;;;;;5094790;28;19911;-79
2022/02/22 06:32:01;;;;;;;;;;;;;;;;;;5093699;28;19904;-84
2022/02/22 06:34:27;;;;;;;;;;;;;;;;;;5080336;28;19904;-85
2022/02/22 06:36:53;;;;;;;;;;;;;;;;;;5073471;28;19911;-82
2022/02/22 06:39:19;;;;;;;;;;;;;;;;;;5073683;28;19905;-85
2022/02/22 06:41:45;;;;;;;;;;;;;;;;;;5073456;28;19905;-81
2022/02/22 06:44:11;;;;;;;;;;;;;;;;;;5072608;28;19904;-79
2022/02/22 06:46:37;;;;;;;;;;;;;;;;;;5072232;28;20292;-75
2022/02/22 06:49:03;;;;;;;;;;;;;;;;;;5074892;28;19911;-79
2022/02/22 06:51:29;;;;;;;;;;;;;;;;;;5075849;28;19904;-79
2022/02/22 06:53:55;;;;;;;;;;;;;;;;;;5088264;28;20256;-79
2022/02/22 06:56:22;;;;;;;;;;;;;;;;;;5091672;28;19911;-77
2022/02/22 06:58:48;;;;;;;;;;;;;;;;;;5092124;28;19918;-74
2022/02/22 07:01:14;;;;;;;;;;;;;;;;;;5091788;28;19904;-74
2022/02/22 07:03:40;;;;;;;;;;;;;;;;;;5090385;28;20403;-74
2022/02/22 07:06:06;;;;;;;;;;;;;;;;;;5093771;28;19912;-76
2022/02/22 07:08:32;;;;;;;;;;;;;;;;;;5093407;28;20360;-76
2022/02/22 07:10:58;;;;;;;;;;;;;;;;;;5093611;28;19907;-75
2022/02/22 07:13:24;;;;;;;;;;;;;;;;;;5093344;28;20361;-73
2022/02/22 07:15:50;;;;;;;;;;;;;;;;;;5092882;28;19953;-73
2022/02/22 07:18:16;;;;;;;;;;;;;;;;;;5091844;28;20308;-73
2022/02/22 07:20:42;;;;;;;;;;;;;;;;;;5093179;28;19987;-75
2022/02/22 07:23:08;;;;;;;;;;;;;;;;;;5092681;28;19907;-72
2022/02/22 07:25:34;;;;;;;;;;;;;;;;;;5091236;28;19991;-73
2022/02/22 07:28:00;;;;;;;;;;;;;;;;;;5092698;28;19908;-73
2022/02/22 07:30:26;;;;;;;;;;;;;;;;;;5092660;28;19911;-73
2022/02/22 07:32:52;;;;;;;;;;;;;;;;;;5083321;28;19908;-77
2022/02/22 07:35:18;;;;;;;;;;;;;;;;;;5072984;28;19974;-75
2022/02/22 07:37:44;;;;;;;;;;;;;;;;;;5072798;28;19904;-74
2022/02/22 07:40:10;;;;;;;;;;;;;;;;;;5072849;28;19904;-68
2022/02/22 07:42:36;;;;;;;;;;;;;;;;;;5072783;28;19904;-71
2022/02/22 07:45:02;;;;;;;;;;;;;;;;;;5072336;28;20006;-70
2022/02/22 07:47:28;;;;;;;;;;;;;;;;;;5071331;28;20303;-70
2022/02/22 07:49:54;;;;;;;;;;;;;;;;;;5073077;28;19904;-70
2022/02/22 07:52:20;;;;;;;;;;;;;;;;;;5072725;28;19905;-70
2022/02/22 07:54:47;;;;;;;;;;;;;;;;;;5073053;28;19904;-71
2022/02/22 07:57:13;;;;;;;;;;;;;;;;;;5072107;28;20398;-74
2022/02/22 07:59:39;;;;;;;;;;;;;;;;;;5077579;28;19955;-70
2022/02/22 08:02:05;;;;;;;;;;;;;;;;;;5089620;28;20002;-70
2022/02/22 08:04:31;;;;;;;;;;;;;;;;;;5092790;28;20360;-70
2022/02/22 08:06:57;;;;;;;;;;;;;;;;;;5092395;28;20006;-72
2022/02/22 08:09:23;;;;;;;;;;;;;;;;;;5090959;28;19950;-73
2022/02/22 08:11:49;;;;;;;;;;;;;;;;;;5092042;28;19908;-73
2022/02/22 08:14:15;;;;;;;;;;;;;;;;;;5091611;28;19904;-73
2022/02/22 08:16:41;;;;;;;;;;;;;;;;;;5091838;28;19910;-73
2022/02/22 08:19:07;;;;;;;;;;;;;;;;;;5092852;28;20298;-73
2022/02/22 08:21:33;;;;;;;;;;;;;;;;;;5093189;28;19950;-74
2022/02/22 08:23:59;;;;;;;;;;;;;;;;;;5093362;28;19904;-72
2022/02/22 08:26:25;;;;;;;;;;;;;;;;;;5092744;28;19912;-73
2022/02/22 08:28:51;;;;;;;;;;;;;;;;;;5092937;28;19908;-74
2022/02/22 08:31:17;;;;;;;;;;;;;;;;;;5079440;28;20357;-73
2022/02/22 08:33:43;;;;;;;;;;;;;;;;;;5072261;28;19904;-71
2022/02/22 08:36:09;;;;;;;;;;;;;;;;;;5072814;28;19904;-74
2022/02/22 08:38:35;;;;;;;;;;;;;;;;;;5068796;28;19908;-71
2022/02/22 08:41:01;;;;;;;;;;;;;;;;;;5071864;28;20000;-73
2022/02/22 08:43:27;;;;;;;;;;;;;;;;;;5071224;28;20341;-72
2022/02/22 08:45:53;;;;;;;;;;;;;;;;;;5072098;28;20438;-73
2022/02/22 08:50:50;;;;;;;;;;;;;;;;;;5110835;27;19916;-72
2022/02/22 08:53:17;;;;;;;;;;;;;;;;;;5111097;28;19955;-70
2022/02/22 08:55:43;;;;;;;;;;;;;;;;;;5110453;28;20470;-72
2022/02/22 08:58:09;;;;;;;;;;;;;;;;;;5105330;28;19916;-74
2022/02/22 09:00:36;;;;;;;;;;;;;;;;;;5110736;28;19916;-72
2022/02/22 09:03:03;;;;;;;;;;;;;;;;;;5108972;28;19926;-71
2022/02/22 09:05:29;;;;;;;;;;;;;;;;;;5110469;28;19908;-71
2022/02/22 09:07:55;;;;;;;;;;;;;;;;;;5110285;28;20643;-68
2022/02/22 09:10:21;;;;;;;;;;;;;;;;;;5110120;27;19916;-70
2022/02/22 09:12:47;;;;;;;;;;;;;;;;;;5108407;28;19916;-71
2022/02/22 09:15:13;;;;;;;;;;;;;;;;;;5110268;28;19908;-72
2022/02/22 09:17:39;;;;;;;;;;;;;;;;;;5105702;28;20348;-72
2022/02/22 09:20:05;;;;;;;;;;;;;;;;;;5105387;28;19918;-71
2022/02/22 09:22:31;;;;;;;;;;;;;;;;;;5105623;28;19916;-71
2022/02/22 09:24:57;;;;;;;;;;;;;;;;;;5100669;28;20015;-70
2022/02/22 09:27:23;;;;;;;;;;;;;;;;;;5103167;28;19914;-70
2022/02/22 09:29:49;;;;;;;;;;;;;;;;;;5109685;28;19920;-70
2022/02/22 09:32:15;;;;;;;;;;;;;;;;;;5109815;28;19982;-71
2022/02/22 09:34:41;;;;;;;;;;;;;;;;;;5110096;28;20388;-72
2022/02/22 09:37:07;;;;;;;;;;;;;;;;;;5109880;28;19980;-72
2022/02/22 09:39:34;;;;;;;;;;;;;;;;;;5108378;28;19913;-73
2022/02/22 09:43:26;;;;;;;;;;;;;;;;;;5110700;27;19916;-74
2022/02/22 09:45:52;;;;;;;;;;;;;;;;;;5111360;28;19915;-75
2022/02/22 09:50:09;;;;;;;;;;;;;;;;;;5088660;27;19912;-75
2022/02/22 09:52:35;;;;;;;;;;;;;;;;;;5089573;28;19944;-73
2022/02/22 09:55:01;;;;;;;;;;;;;;;;;;5090426;28;19908;-73
2022/02/22 10:01:13;;;;;;;;;;;;;;;;;;5090526;28;19916;-71
2022/02/22 10:05:58;;;;;;;;;;;;;;;;;;5090110;28;20274;-73
2022/02/22 10:08:24;;;;;;;;;;;;;;;;;;5090627;28;19919;-70
2022/02/22 10:13:20;;;;;;;;;;;;;;;;;;5110603;27;19916;-70
2022/02/22 10:15:47;;;;;;;;;;;;;;;;;;5109486;28;19937;-72
2022/02/22 10:18:13;;;;;;;;;;;;;;;;;;5109109;28;20002;-73
2022/02/22 10:20:39;;;;;;;;;;;;;;;;;;5110857;28;19993;-72
2022/02/22 10:23:06;;;;;;;;;;;;;;;;;;5109569;28;20375;-72
2022/02/22 10:25:32;;;;;;;;;;;;;;;;;;5109067;28;20623;-72
2022/02/22 10:27:59;;;;;;;;;;;;;;;;;;5108452;28;19961;-71
2022/02/22 10:30:25;;;;;;;;;;;;;;;;;;5104231;28;19934;-73
2022/02/22 10:32:51;;;;;;;;;;;;;;;;;;5106323;28;19916;-73
2022/02/22 10:35:17;;;;;;;;;;;;;;;;;;5109552;28;19915;-73
2022/02/22 10:37:43;;;;;;;;;;;;;;;;;;5110537;28;19908;-71
2022/02/22 10:40:09;;;;;;;;;;;;;;;;;;5110199;28;20391;-72
2022/02/22 10:42:35;;;;;;;;;;;;;;;;;;5105460;28;19916;-71
2022/02/22 10:45:01;;;;;;;;;;;;;;;;;;5107902;28;19912;-72
2022/02/22 10:47:27;;;;;;;;;;;;;;;;;;5107294;28;19919;-72
2022/02/22 10:49:53;;;;;;;;;;;;;;;;;;5108279;28;20372;-72
2022/02/22 10:52:19;;;;;;;;;;;;;;;;;;5107233;28;19931;-72
2022/02/22 10:54:45;;;;;;;;;;;;;;;;;;5108859;28;19934;-72
2022/02/22 10:57:11;;;;;;;;;;;;;;;;;;5110066;28;19908;-72
2022/02/22 10:59:37;;;;;;;;;;;;;;;;;;5109885;28;19908;-71
2022/02/22 11:02:03;;;;;;;;;;;;;;;;;;5109345;28;20336;-73
2022/02/22 11:04:31;;;;;;;;;;;;;;;;;;5108571;28;20011;-72
2022/02/22 11:06:57;;;;;;;;;;;;;;;;;;5110082;28;19915;-73
2022/02/22 11:09:24;;;;;;;;;;;;;;;;;;5108280;28;19908;-73
2022/02/22 11:11:50;;;;;;;;;;;;;;;;;;5109596;28;20011;-72
2022/02/22 11:14:18;;;;;;;;;;;;;;;;;;5110194;28;19994;-71
2022/02/22 11:16:45;;;;;;;;;;;;;;;;;;5108419;28;20007;-71
2022/02/22 11:19:11;;;;;;;;;;;;;;;;;;5110075;28;19943;-73
2022/02/22 11:21:38;;;;;;;;;;;;;;;;;;5109621;28;19908;-73
2022/02/22 11:24:05;;;;;;;;;;;;;;;;;;5095117;28;19951;-72
2022/02/22 11:26:31;;;;;;;;;;;;;;;;;;5095598;28;19919;-72
2022/02/22 11:28:58;;;;;;;;;;;;;;;;;;5095990;28;19983;-72
2022/02/22 11:31:24;;;;;;;;;;;;;;;;;;5095021;28;19912;-72
2022/02/22 11:33:51;;;;;;;;;;;;;;;;;;5095683;28;20025;-71
2022/02/22 11:36:18;;;;;;;;;;;;;;;;;;5095619;28;19912;-71
2022/02/22 11:38:45;;;;;;;;;;;;;;;;;;5096341;28;19931;-72
2022/02/22 11:41:11;;;;;;;;;;;;;;;;;;5094784;28;19912;-72
2022/02/22 11:43:39;;;;;;;;;;;;;;;;;;5094277;28;19915;-71
2022/02/22 11:46:06;;;;;;;;;;;;;;;;;;5095855;28;19908;-71
2022/02/22 11:48:32;;;;;;;;;;;;;;;;;;5095855;28;19914;-72
2022/02/22 11:50:59;;;;;;;;;;;;;;;;;;5095354;28;19908;-71
2022/02/22 11:53:26;;;;;;;;;;;;;;;;;;5095863;28;20269;-72
2022/02/22 11:55:53;;;;;;;;;;;;;;;;;;5095624;28;19919;-72
2022/02/22 11:58:25;;;;;;;;;;;;;;;;;;5090811;28;20277;-70
2022/02/22 12:00:51;;;;;;;;;;;;;;;;;;5093926;28;19908;-71
2022/02/22 12:03:22;;;;;;;;;;;;;;;;;;5095687;28;19908;-71
2022/02/22 12:05:48;;;;;;;;;;;;;;;;;;5093256;28;20283;-71
2022/02/22 12:08:14;;;;;;;;;;;;;;;;;;5093765;28;19912;-71
2022/02/22 12:10:40;;;;;;;;;;;;;;;;;;5094230;28;20002;-69
2022/02/22 12:13:06;;;;;;;;;;;;;;;;;;5090319;28;20011;-71
2022/02/22 12:15:32;;;;;;;;;;;;;;;;;;5094163;28;20310;-72
2022/02/22 12:17:58;;;;;;;;;;;;;;;;;;5095156;28;19908;-73
2022/02/22 12:20:24;;;;;;;;;;;;;;;;;;5093872;28;19908;-72
2022/02/22 12:22:50;;;;;;;;;;;;;;;;;;5093593;28;19913;-73
2022/02/22 12:25:16;;;;;;;;;;;;;;;;;;5094957;28;19909;-73
2022/02/22 12:27:42;;;;;;;;;;;;;;;;;;5095188;28;20287;-73
2022/02/22 12:30:08;;;;;;;;;;;;;;;;;;5095194;28;19908;-71
2022/02/22 12:32:36;;;;;;;;;;;;;;;;;;5092662;28;19916;-73
2022/02/22 12:35:06;;;;;;;;;;;;;;;;;;5094122;28;19915;-76
2022/02/22 12:37:32;;;;;;;;;;;;;;;;;;5095055;28;19908;-73
2022/02/22 12:39:58;;;;;;;;;;;;;;;;;;5093387;28;19915;-73
2022/02/22 12:42:24;;;;;;;;;;;;;;;;;;5095023;28;19943;-73
2022/02/22 12:44:53;;;;;;;;;;;;;;;;;;5093496;28;19912;-72
2022/02/22 12:47:19;;;;;;;;;;;;;;;;;;5094584;28;19908;-73
2022/02/22 12:49:45;;;;;;;;;;;;;;;;;;5094684;28;19908;-72
2022/02/22 12:52:15;;;;;;;;;;;;;;;;;;5094893;28;20052;-73
2022/02/22 12:54:41;;;;;;;;;;;;;;;;;;5094317;28;19908;-73
2022/02/22 12:57:07;;;;;;;;;;;;;;;;;;5093448;28;20356;-76
2022/02/22 12:59:33;;;;;;;;;;;;;;;;;;5094727;28;19908;-73
2022/02/22 13:01:59;;;;;;;;;;;;;;;;;;5094431;28;19908;-73
2022/02/22 13:04:25;;;;;;;;;;;;;;;;;;5094721;28;19912;-74
2022/02/22 13:06:51;;;;;;;;;;;;;;;;;;5094563;28;20007;-72
2022/02/22 13:09:17;;;;;;;;;;;;;;;;;;5092744;28;19908;-72
2022/02/22 13:11:43;;;;;;;;;;;;;;;;;;5092927;28;19923;-71
2022/02/22 13:14:10;;;;;;;;;;;;;;;;;;5094175;28;19912;-73
2022/02/22 13:16:36;;;;;;;;;;;;;;;;;;5093254;28;19909;-73
2022/02/22 13:19:02;;;;;;;;;;;;;;;;;;5093192;28;19939;-73
2022/02/22 13:21:28;;;;;;;;;;;;;;;;;;5094162;28;19908;-72
2022/02/22 13:23:58;;;;;;;;;;;;;;;;;;5092925;28;19919;-72
2022/02/22 13:26:24;;;;;;;;;;;;;;;;;;5094326;28;19912;-75
2022/02/22 13:28:50;;;;;;;;;;;;;;;;;;5092446;28;19961;-72
2022/02/22 13:31:16;;;;;;;;;;;;;;;;;;5094069;28;19920;-73
2022/02/22 13:33:42;;;;;;;;;;;;;;;;;;5094043;28;19914;-73
2022/02/22 13:36:08;;;;;;;;;;;;;;;;;;5092447;28;19908;-73
2022/02/22 13:38:34;;;;;;;;;;;;;;;;;;5092889;28;20332;-73
2022/02/22 13:41:00;;;;;;;;;;;;;;;;;;5092870;28;19912;-75
2022/02/22 13:43:26;;;;;;;;;;;;;;;;;;5092382;28;19908;-73
2022/02/22 13:45:52;;;;;;;;;;;;;;;;;;5092482;28;19944;-74
2022/02/22 13:48:18;;;;;;;;;;;;;;;;;;5093832;28;19978;-74
2022/02/22 13:50:44;;;;;;;;;;;;;;;;;;5093695;28;19908;-73
2022/02/22 13:53:10;;;;;;;;;;;;;;;;;;5088988;28;20465;-73
2022/02/22 13:55:36;;;;;;;;;;;;;;;;;;5092182;28;19908;-73
2022/02/22 13:58:02;;;;;;;;;;;;;;;;;;5093312;28;19912;-76
2022/02/22 14:00:28;;;;;;;;;;;;;;;;;;5092762;28;19908;-72
2022/02/22 14:02:54;;;;;;;;;;;;;;;;;;5092261;28;19915;-71
2022/02/22 14:05:21;;;;;;;;;;;;;;;;;;5093307;28;20283;-71
2022/02/22 14:07:47;;;;;;;;;;;;;;;;;;5091573;28;19908;-70
2022/02/22 14:10:13;;;;;;;;;;;;;;;;;;5092538;28;19912;-70
2022/02/22 14:12:39;;;;;;;;;;;;;;;;;;5093087;28;20372;-70
2022/02/22 14:15:05;;;;;;;;;;;;;;;;;;5093609;28;19908;-71
2022/02/22 14:17:33;;;;;;;;;;;;;;;;;;5091727;28;19908;-72
2022/02/22 14:19:59;;;;;;;;;;;;;;;;;;5093682;28;19953;-71
2022/02/22 14:22:25;;;;;;;;;;;;;;;;;;5093336;28;19959;-71
2022/02/22 14:24:52;;;;;;;;;;;;;;;;;;5093189;28;19973;-71
2022/02/22 14:27:18;;;;;;;;;;;;;;;;;;5092106;28;19908;-71
2022/02/22 14:29:45;;;;;;;;;;;;;;;;;;5093505;28;19914;-71
2022/02/22 14:32:12;;;;;;;;;;;;;;;;;;5093444;28;19962;-71
2022/02/22 14:34:37;;;;;;;;;;;;;;;;;;5093533;28;19911;-72
2022/02/22 14:37:03;;;;;;;;;;;;;;;;;;5093625;28;20313;-72
2022/02/22 14:39:32;;;;;;;;;;;;;;;;;;5093198;28;19912;-71
2022/02/22 14:41:58;;;;;;;;;;;;;;;;;;5093739;28;19908;-71
2022/02/22 14:44:24;;;;;;;;;;;;;;;;;;5093715;28;19953;-71
2022/02/22 14:46:52;;;;;;;;;;;;;;;;;;5093221;28;20272;-71
2022/02/22 14:49:18;;;;;;;;;;;;;;;;;;5092241;28;19985;-72
2022/02/22 14:51:44;;;;;;;;;;;;;;;;;;5093252;28;19962;-71
2022/02/22 14:54:10;;;;;;;;;;;;;;;;;;5090846;28;19909;-71
2022/02/22 14:56:36;;;;;;;;;;;;;;;;;;5092115;28;19915;-71
2022/02/22 14:59:02;;;;;;;;;;;;;;;;;;5095810;28;20383;-72
2022/02/22 15:01:29;;;;;;;;;;;;;;;;;;5115938;28;19915;-72
2022/02/22 15:03:55;;;;;;;;;;;;;;;;;;5116337;28;20416;-71
2022/02/22 15:06:21;;;;;;;;;;;;;;;;;;5117690;28;19911;-71
2022/02/22 15:08:48;;;;;;;;;;;;;;;;;;5117247;28;19907;-71
2022/02/22 15:11:14;;;;;;;;;;;;;;;;;;5116028;28;19922;-71
2022/02/22 15:13:41;;;;;;;;;;;;;;;;;;5117027;28;19919;-71
2022/02/22 15:16:07;;;;;;;;;;;;;;;;;;5117430;28;19957;-71
2022/02/22 15:18:33;;;;;;;;;;;;;;;;;;5116026;28;20309;-71
2022/02/22 15:20:59;;;;;;;;;;;;;;;;;;5115654;28;19908;-71
2022/02/22 15:23:25;;;;;;;;;;;;;;;;;;5117152;28;19908;-71
2022/02/22 15:25:51;;;;;;;;;;;;;;;;;;5117406;28;20291;-71
2022/02/22 15:28:17;;;;;;;;;;;;;;;;;;5116801;28;19929;-71
2022/02/22 15:30:44;;;;;;;;;;;;;;;;;;5117123;28;19908;-71
2022/02/22 15:33:10;;;;;;;;;;;;;;;;;;5115813;28;19920;-71
2022/02/22 15:35:38;;;;;;;;;;;;;;;;;;5115408;28;20433;-71
2022/02/22 15:38:04;;;;;;;;;;;;;;;;;;5115700;28;20364;-71
2022/02/22 15:40:30;;;;;;;;;;;;;;;;;;5116849;28;20440;-71
2022/02/22 15:42:55;;;;;;;;;;;;;;;;;;5116614;27;19908;-72
2022/02/22 15:45:21;;;;;;;;;;;;;;;;;;5115588;28;19915;-72
2022/02/22 15:47:48;;;;;;;;;;;;;;;;;;5115445;28;19908;-70
2022/02/22 15:50:15;;;;;;;;;;;;;;;;;;5116636;28;19917;-70
2022/02/22 15:52:41;;;;;;;;;;;;;;;;;;5116590;28;19916;-71
2022/02/22 15:55:07;;;;;;;;;;;;;;;;;;5115335;28;20287;-70
2022/02/22 15:57:33;;;;;;;;;;;;;;;;;;5116297;27;19915;-71
2022/02/22 15:59:59;;;;;;;;;;;;;;;;;;5115097;28;20265;-71
2022/02/22 16:02:25;;;;;;;;;;;;;;;;;;5116537;28;19984;-71
2022/02/22 16:04:51;;;;;;;;;;;;;;;;;;5116117;28;19953;-71
2022/02/22 16:07:17;;;;;;;;;;;;;;;;;;5116441;28;20261;-71
2022/02/22 16:09:43;;;;;;;;;;;;;;;;;;5116354;27;19915;-71
2022/02/22 16:12:09;;;;;;;;;;;;;;;;;;5115725;28;20256;-71
2022/02/22 16:14:35;;;;;;;;;;;;;;;;;;5116427;27;19908;-71
2022/02/22 16:17:01;;;;;;;;;;;;;;;;;;5115874;28;19907;-71
2022/02/22 16:19:27;;;;;;;;;;;;;;;;;;5116333;28;19946;-72
2022/02/22 16:21:53;;;;;;;;;;;;;;;;;;5114905;28;19987;-71
2022/02/22 16:24:20;;;;;;;;;;;;;;;;;;5114531;28;19908;-70
2022/02/22 16:26:46;;;;;;;;;;;;;;;;;;5114735;28;19953;-72
2022/02/22 16:29:12;;;;;;;;;;;;;;;;;;5114909;28;19908;-71
2022/02/22 16:31:38;;;;;;;;;;;;;;;;;;5115457;28;20261;-71
2022/02/22 16:34:04;;;;;;;;;;;;;;;;;;5113167;28;19929;-71
2022/02/22 16:36:30;;;;;;;;;;;;;;;;;;5115845;28;19912;-71
2022/02/22 16:38:56;;;;;;;;;;;;;;;;;;5114055;28;19908;-71
2022/02/22 16:41:22;;;;;;;;;;;;;;;;;;5115930;28;19945;-71
2022/02/22 16:43:48;;;;;;;;;;;;;;;;;;5114319;28;20438;-72